Nearby METAR Reports

This page may be slow to load as it queries the National Weather Service for data.

KBIS - Bismarck, North Dakota, USA
Distance from station: S 10mi, 15km
Updated: Fri, 28-Jul-2017 12:52am CDT
Clear
Clear
 Wind from SE
Wind: SE 7 mph , 11 km/h
Temperature: 70°F , 21°C
Dew Point: 57°F , 14°C
Humidity: 64%
Barometer: 30.05 inHg , 1017.6 hPa
Clouds: Clear
Visibility: 10 miles , 16 km
2017/07/28 05:52 KBIS 280552Z AUTO 13006KT 10SM CLR 21/14 A3005 RMK AO2 SLP167 T02060144 10289 20200 402890167 53005
KY19 - Mandan, North Dakota, USA
Distance from station: SSW 11mi, 17km
Updated: Fri, 28-Jul-2017 1:35am CDT
Partly cloudy
Partly cloudy
 Wind from SE
Wind: SE 9 mph , 15 km/h
Temperature: 68°F , 20°C
Dew Point: 57°F , 14°C
Humidity: 69%
Barometer: 30.06 inHg , 1017.9 hPa
Clouds: Partly cloudy
Visibility: 10 miles , 16 km
Cloud details: Few Clouds 4300 ft
Partly cloudy 7000 ft
2017/07/28 06:35 KY19 280635Z AUTO 14008KT 10SM FEW043 SCT070 20/14 A3006 RMK AO2
 
KDIK - Dickinson, North Dakota, USA
Distance from station: W 95mi, 154km
Updated: Fri, 28-Jul-2017 12:56am CDT
Clear
Clear
 Wind from E
Wind: E 7 mph , 11 km/h
Temperature: 63°F , 17°C
Dew Point: 59°F , 15°C
Humidity: 88%
Barometer: 30.04 inHg , 1017.3 hPa
Clouds: Clear
Visibility: 10 miles , 16 km
2017/07/28 05:56 KDIK 280556Z AUTO 08006KT 10SM CLR 17/15 A3004 RMK AO2 SLP156 60000 T01670150 10222 20161 50003
KISN - Williston, North Dakota, USA
Distance from station: NNW 2mi, 2km
Updated: Fri, 28-Jul-2017 12:52am CDT
Clear
Clear
 Wind from calm
Wind: Calm
Temperature: 66°F , 19°C
Dew Point: 61°F , 16°C
Humidity: 83%
Barometer: 30.01 inHg , 1016.3 hPa
Clouds: Clear
Visibility: 10 miles , 16 km
2017/07/28 05:52 KISN 280552Z AUTO 00000KT 10SM CLR 19/16 A3001 RMK AO2 RAB30E40 SLP157 P0000 60000 T01940161 10256 20189 402610189 50003
 
KFAR - Fargo, North Dakota, USA
Distance from station: NNW 4mi, 7km
Updated: Fri, 28-Jul-2017 12:53am CDT
Clear
Clear
 Wind from calm
Wind: Calm
Temperature: 64°F , 18°C
Dew Point: 61°F , 16°C
Humidity: 88%
Barometer: 30.06 inHg , 1017.9 hPa
Clouds: Clear
Visibility: 10 miles , 16 km
2017/07/28 05:53 KFAR 280553Z 00000KT 10SM CLR 18/16 A3006 RMK AO2 SLP176 T01780161 10283 20172 403000122 50003
KGFK - Grand Forks, North Dakota, USA
Distance from station: NNW 76mi, 123km
Updated: Fri, 28-Jul-2017 12:53am CDT
Clear
Clear
 Wind from SSW
Wind: SSW 3 mph , 6 km/h
Temperature: 63°F , 17°C
Dew Point: 61°F , 16°C
Humidity: 94%
Barometer: 30.05 inHg , 1017.6 hPa
Clouds: Clear
Visibility: 10 miles , 16 km
2017/07/28 05:53 KGFK 280553Z AUTO 20003KT 10SM CLR 17/16 A3005 RMK AO2 SLP173 T01720161 10289 20172 403000128 51003
 
KMOT - Minot, North Dakota, USA
Distance from station: E 109mi, 175km
Updated: Fri, 28-Jul-2017 12:54am CDT
Clear
Clear
 Wind from ESE
Wind: ESE 7 mph , 11 km/h
Temperature: 72°F , 22°C
Dew Point: 61°F , 16°C
Humidity: 69%
Barometer: 30.03 inHg , 1016.9 hPa
Clouds: Clear
Visibility: 10 miles , 16 km
2017/07/28 05:54 KMOT 280554Z AUTO 12006KT 10SM CLR 22/16 A3003 RMK AO2 SLP161 T02170156 10283 20211 403000189 50002
KGDV - Glendive, Montana, USA
Distance from station: W 3mi, 6km
Updated: Fri, 28-Jul-2017 12:56am CDT
Clear
Clear
 Wind from ESE
Wind: ESE 6 mph , 9 km/h
Temperature: 64°F , 18°C
Dew Point: 59°F , 15°C
Humidity: 83%
Barometer: 30.01 inHg , 1016.3 hPa
Clouds: Clear
Visibility: 10 miles , 16 km
2017/07/28 05:56 KGDV 280556Z AUTO 11005KT 10SM CLR 18/15 A3001 RMK AO2 SLP143 T01830150 10239 20183 50003 $